Klitsa — CZ3072 — position and weather

sailwx.info

Track history (hours):
 
Tides and Currents Weather Stations Pressure Air Temp Water Temp Dewpoint Dewpoint Depression Visibility Wind Speed Wind Dir Waves Ship Positions

Klitsa

Last reported at 2017-Dec-18 20:00 UTC. Time now 2017-Dec-18 20:06 UTC.
Position N 48°35' W 123°28'.

Length 46 m; draft 3 m.

Type: Passenger vessel. MMSI: 316001235.

Date/timePositionNaut miles runAvg speedWind from/ knotsBaromVisibWave heightAir tempDewpointWater temp
2017-Dec-18 20:00N 48°35' W 123°28'3 5.8
2017-Dec-18 19:30N 48°37' W 123°31'3 4.8
2017-Dec-18 18:53N 48°35' W 123°28'2 6.3
2017-Dec-18 18:30N 48°36' W 123°31'1 3.0
2017-Dec-18 18:00N 48°35' W 123°29'0 0.3
2017-Dec-18 17:30N 48°35' W 123°29'1 2.3
2017-Dec-18 17:00N 48°36' W 123°30'2 4.1
2017-Dec-18 16:29N 48°35' W 123°28'3 5.8
2017-Dec-18 16:00N 48°37' W 123°31'3 0.7
2017-Dec-18 11:39N 48°35' W 123°28'0 0.0
2017-Dec-18 11:27N 48°35' W 123°28'0 0.0
2017-Dec-18 10:00N 48°35' W 123°28'0 0.0
2017-Dec-18 09:30N 48°35' W 123°28'0 0.0
2017-Dec-18 09:00N 48°35' W 123°28'0 0.0
2017-Dec-18 08:30N 48°35' W 123°28'0 0.0
2017-Dec-18 08:00N 48°35' W 123°28'0 0.0
2017-Dec-18 07:15N 48°35' W 123°28'0 0.0
2017-Dec-18 06:54N 48°35' W 123°28'0 0.0
2017-Dec-18 04:21N 48°35' W 123°28'0 0.0
2017-Dec-18 03:36N 48°35' W 123°28'0 0.0
2017-Dec-18 03:27N 48°35' W 123°28'0 0.2
2017-Dec-18 02:55N 48°35' W 123°28'3 7.0
2017-Dec-18 02:30N 48°37' W 123°31'3 5.5
2017-Dec-18 01:58N 48°35' W 123°28'2 4.8
2017-Dec-18 01:30N 48°36' W 123°30'1 1.8
2017-Dec-18 01:00N 48°36' W 123°30'0 0.9
2017-Dec-18 00:30N 48°35' W 123°29'2 4.0
2017-Dec-18 00:00N 48°37' W 123°31'3 5.2
2017-Dec-17 23:27N 48°35' W 123°28'3 6.6
2017-Dec-17 23:00N 48°37' W 123°31'2 4.9
2017-Dec-17 22:30N 48°35' W 123°29'1 2.8
2017-Dec-17 22:00N 48°36' W 123°30'0 0.2
2017-Dec-17 21:30N 48°36' W 123°30'2 3.8
2017-Dec-17 21:00N 48°35' W 123°28'0 0.0
2017-Dec-17 20:23N 48°35' W 123°28'0 1.3
2017-Dec-17 20:00N 48°35' W 123°29'3 5.1
2017-Dec-17 19:31N 48°37' W 123°31'3 4.9
2017-Dec-17 18:55N 48°35' W 123°28'3 6.6
2017-Dec-17 18:30N 48°37' W 123°31'2 3.8
2017-Dec-17 18:00N 48°35' W 123°29'1 1.3
2017-Dec-17 17:31N 48°36' W 123°30'1 2.1
2017-Dec-17 17:01N 48°36' W 123°31'2 0.9
2017-Dec-17 14:28N 48°35' W 123°28'0 0.0
2017-Dec-17 13:58N 48°35' W 123°28'0 0.0
2017-Dec-17 13:28N 48°35' W 123°28'0 0.0
2017-Dec-17 12:58N 48°35' W 123°28'0 0.0
2017-Dec-17 12:25N 48°35' W 123°28'0 0.0
2017-Dec-17 11:19N 48°35' W 123°28'0 0.0
2017-Dec-17 10:55N 48°35' W 123°28'0 0.0
2017-Dec-17 10:28N 48°35' W 123°28'0 0.0
2017-Dec-17 09:55N 48°35' W 123°28'0 0.0
2017-Dec-17 08:10N 48°35' W 123°28'0 0.0
2017-Dec-17 06:40N 48°35' W 123°28'0 0.0
2017-Dec-17 06:28N 48°35' W 123°28'0 0.0
2017-Dec-17 05:52N 48°35' W 123°28'0 0.0
2017-Dec-17 05:01N 48°35' W 123°28'0 0.0
2017-Dec-17 04:04N 48°35' W 123°28'0 0.0
2017-Dec-17 03:52N 48°35' W 123°28'0 0.0
2017-Dec-17 03:13N 48°35' W 123°28'0 0.1
2017-Dec-17 02:54N 48°35' W 123°28'3 7.4
2017-Dec-17 02:30N 48°37' W 123°31'3 5.1
2017-Dec-17 02:00N 48°35' W 123°29'2 3.0
2017-Dec-17 01:30N 48°36' W 123°30'0 0.6
2017-Dec-17 01:00N 48°36' W 123°30'1 1.4
2017-Dec-17 00:30N 48°35' W 123°29'2 3.7
2017-Dec-17 00:00N 48°37' W 123°31'3 4.7
2017-Dec-16 23:26N 48°35' W 123°28'3 6.9
2017-Dec-16 23:00N 48°37' W 123°31'3 5.8
2017-Dec-16 22:30N 48°35' W 123°28'2 4.2
2017-Dec-16 22:00N 48°36' W 123°30'1 2.2
2017-Dec-16 21:30N 48°35' W 123°29'1 1.9
2017-Dec-16 20:57N 48°35' W 123°28'0 0.0
2017-Dec-16 20:23N 48°35' W 123°28'0 0.6
2017-Dec-16 20:00N 48°35' W 123°28'3 5.6
2017-Dec-16 19:30N 48°37' W 123°31'3 4.5
2017-Dec-16 18:52N 48°35' W 123°28'3 7.4
2017-Dec-16 18:30N 48°37' W 123°31'2 3.8
2017-Dec-16 18:00N 48°35' W 123°29'0 0.7
2017-Dec-16 17:30N 48°35' W 123°30'1 2.6
2017-Dec-16 17:00N 48°36' W 123°31'2 0.2
2017-Dec-16 03:06N 48°35' W 123°28'0 2.6
2017-Dec-16 03:00N 48°35' W 123°28'3 5.6
2017-Dec-16 02:31N 48°37' W 123°31'3 5.1
2017-Dec-16 01:56N 48°35' W 123°28'3 6.7
2017-Dec-16 01:31N 48°37' W 123°31'2 4.7
2017-Dec-16 01:00N 48°35' W 123°29'1 1.7
2017-Dec-16 00:31N 48°35' W 123°30'1 1.3
2017-Dec-16 00:01N 48°36' W 123°30'2 3.3
2017-Dec-15 23:31N 48°35' W 123°29'3 5.2
2017-Dec-15 23:01N 48°37' W 123°31'3 4.4
2017-Dec-15 22:20N 48°35' W 123°28'2 6.6
2017-Dec-15 22:00N 48°36' W 123°30'1 1.8
2017-Dec-15 21:30N 48°35' W 123°30'1 2.2
2017-Dec-15 20:54N 48°35' W 123°28'0 0.0
2017-Dec-15 20:02N 48°35' W 123°28'0 4.2
2017-Dec-15 20:00N 48°35' W 123°28'3 5.9
2017-Dec-15 19:30N 48°37' W 123°31'3 4.6
2017-Dec-15 18:52N 48°35' W 123°28'3 6.9
2017-Dec-15 18:31N 48°37' W 123°31'2 3.5
2017-Dec-15 18:01N 48°35' W 123°29'0 0.4
2017-Dec-15 17:31N 48°35' W 123°29'1 3.0
2017-Dec-15 17:01N 48°36' W 123°31'2 4.9
2017-Dec-15 16:30N 48°35' W 123°28'3 5.9
2017-Dec-15 16:01N 48°37' W 123°31'3 4.4
2017-Dec-15 15:21N 48°35' W 123°28'0 0.0
2017-Dec-15 14:58N 48°35' W 123°28'0 0.0
2017-Dec-15 12:22N 48°35' W 123°28'0 0.0
2017-Dec-15 11:28N 48°35' W 123°28'0 0.0
2017-Dec-15 08:16N 48°35' W 123°28'0 0.0
2017-Dec-15 07:52N 48°35' W 123°28'0 0.0
2017-Dec-15 07:28N 48°35' W 123°28'0 0.0
2017-Dec-15 04:28N 48°35' W 123°28'3 1.5
2017-Dec-15 02:31N 48°37' W 123°31'2 1.4
2017-Dec-15 01:00N 48°35' W 123°29'0 0.5
2017-Dec-15 00:31N 48°35' W 123°29'1 0.2
2017-Dec-14 18:31N 48°36' W 123°30'1 2.4
2017-Dec-14 18:01N 48°35' W 123°30'0 0.6
2017-Dec-14 17:31N 48°35' W 123°29'2 3.6
2017-Dec-14 17:01N 48°37' W 123°31'3 5.3
2017-Dec-14 16:30N 48°35' W 123°28'3 5.9
2017-Dec-14 16:01N 48°37' W 123°31'3 2.4
2017-Dec-14 14:46N 48°35' W 123°28'0 0.0
2017-Dec-14 14:28N 48°35' W 123°28'0 0.0
2017-Dec-14 04:58N 48°35' W 123°28'0 0.0
2017-Dec-14 04:28N 48°35' W 123°28'0 0.0
2017-Dec-14 03:58N 48°35' W 123°28'0 0.0
2017-Dec-14 03:28N 48°35' W 123°28'0 0.0
2017-Dec-14 03:00N 48°35' W 123°28'3 5.9
2017-Dec-14 02:31N 48°37' W 123°31'3 5.8
2017-Dec-14 02:00N 48°35' W 123°28'3 5.4
2017-Dec-14 01:31N 48°37' W 123°31'2 3.1
2017-Dec-14 01:01N 48°35' W 123°29'0 0.6
2017-Dec-14 00:31N 48°35' W 123°29'2 3.7
2017-Dec-14 00:01N 48°37' W 123°31'3 4.8
2017-Dec-13 23:27N 48°35' W 123°28'3 6.6
2017-Dec-13 23:01N 48°37' W 123°31'3 5.3
2017-Dec-13 22:30N 48°35' W 123°29'2 3.5
2017-Dec-13 22:01N 48°36' W 123°30'1 1.1
2017-Dec-13 21:31N 48°36' W 123°30'2 1.1
2017-Dec-13 20:06N 48°35' W 123°28'1 5.7
2017-Dec-13 20:01N 48°35' W 123°29'2 4.5
2017-Dec-13 19:31N 48°37' W 123°31'3 4.8
2017-Dec-13 18:57N 48°35' W 123°28'3 6.8
2017-Dec-13 18:31N 48°37' W 123°31'2 4.6
2017-Dec-13 18:01N 48°35' W 123°29'0 1.0
2017-Dec-13 17:31N 48°35' W 123°29'1 2.4
2017-Dec-13 17:01N 48°36' W 123°30'2 4.6
2017-Dec-13 16:30N 48°35' W 123°28'3 5.9
2017-Dec-13 16:01N 48°37' W 123°31'3 5.7
2017-Dec-13 15:30N 48°35' W 123°28'0 0.0
2017-Dec-13 11:17N 48°35' W 123°28'0 0.0
2017-Dec-13 10:29N 48°35' W 123°28'0 0.0
2017-Dec-13 09:41N 48°35' W 123°28'0 0.0
2017-Dec-13 09:29N 48°35' W 123°28'0 0.0
2017-Dec-13 08:59N 48°35' W 123°28'0 0.0
2017-Dec-13 08:29N 48°35' W 123°28'0 0.0
2017-Dec-13 04:05N 48°35' W 123°28'0 0.0
2017-Dec-13 03:35N 48°35' W 123°28'0 0.0
2017-Dec-13 03:29N 48°35' W 123°28'0 0.0
2017-Dec-13 02:59N 48°35' W 123°28'3 6.2
2017-Dec-13 02:30N 48°37' W 123°31'3 5.2
2017-Dec-13 02:00N 48°35' W 123°29'2 3.1
2017-Dec-13 01:30N 48°36' W 123°30'0 0.5
2017-Dec-13 01:00N 48°36' W 123°30'1 1.9
2017-Dec-13 00:30N 48°35' W 123°29'2 4.3
2017-Dec-13 00:00N 48°37' W 123°31'3 5.5
2017-Dec-12 23:29N 48°35' W 123°28'3 6.2
2017-Dec-12 23:00N 48°37' W 123°31'3 5.3
2017-Dec-12 22:30N 48°35' W 123°29'1 0.0
2017-Dec-10 22:43N 48°36' W 123°30'0 0.0
2017-Dec-10 02:12N 48°36' W 123°30'  
Track history (hours):
 
Tides and Currents Weather Stations Pressure Air Temp Water Temp Dewpoint Dewpoint Depression Visibility Wind Speed Wind Dir Waves Ship Positions

Klitsa

Last reported at 2017-Dec-18 20:00 UTC. Time now 2017-Dec-18 20:06 UTC.
Position N 48°35' W 123°28'.

Length 46 m; draft 3 m.

Type: Passenger vessel. MMSI: 316001235.

Date/timePositionNaut miles runAvg speedWind from/ knotsBaromVisibWave heightAir tempDewpointWater temp
2017-Dec-18 20:00N 48°35' W 123°28'3 5.8
2017-Dec-18 19:30N 48°37' W 123°31'3 4.8
2017-Dec-18 18:53N 48°35' W 123°28'2 6.3
2017-Dec-18 18:30N 48°36' W 123°31'1 3.0
2017-Dec-18 18:00N 48°35' W 123°29'0 0.3
2017-Dec-18 17:30N 48°35' W 123°29'1 2.3
2017-Dec-18 17:00N 48°36' W 123°30'2 4.1
2017-Dec-18 16:29N 48°35' W 123°28'3 5.8
2017-Dec-18 16:00N 48°37' W 123°31'3 0.7
2017-Dec-18 11:39N 48°35' W 123°28'0 0.0
2017-Dec-18 11:27N 48°35' W 123°28'0 0.0
2017-Dec-18 10:00N 48°35' W 123°28'0 0.0
2017-Dec-18 09:30N 48°35' W 123°28'0 0.0
2017-Dec-18 09:00N 48°35' W 123°28'0 0.0
2017-Dec-18 08:30N 48°35' W 123°28'0 0.0
2017-Dec-18 08:00N 48°35' W 123°28'0 0.0
2017-Dec-18 07:15N 48°35' W 123°28'0 0.0
2017-Dec-18 06:54N 48°35' W 123°28'0 0.0
2017-Dec-18 04:21N 48°35' W 123°28'0 0.0
2017-Dec-18 03:36N 48°35' W 123°28'0 0.0
2017-Dec-18 03:27N 48°35' W 123°28'0 0.2
2017-Dec-18 02:55N 48°35' W 123°28'3 7.0
2017-Dec-18 02:30N 48°37' W 123°31'3 5.5
2017-Dec-18 01:58N 48°35' W 123°28'2 4.8
2017-Dec-18 01:30N 48°36' W 123°30'1 1.8
2017-Dec-18 01:00N 48°36' W 123°30'0 0.9
2017-Dec-18 00:30N 48°35' W 123°29'2 4.0
2017-Dec-18 00:00N 48°37' W 123°31'3 5.2
2017-Dec-17 23:27N 48°35' W 123°28'3 6.6
2017-Dec-17 23:00N 48°37' W 123°31'2 4.9
2017-Dec-17 22:30N 48°35' W 123°29'1 2.8
2017-Dec-17 22:00N 48°36' W 123°30'0 0.2
2017-Dec-17 21:30N 48°36' W 123°30'2 3.8
2017-Dec-17 21:00N 48°35' W 123°28'0 0.0
2017-Dec-17 20:23N 48°35' W 123°28'0 1.3
2017-Dec-17 20:00N 48°35' W 123°29'3 5.1
2017-Dec-17 19:31N 48°37' W 123°31'3 4.9
2017-Dec-17 18:55N 48°35' W 123°28'3 6.6
2017-Dec-17 18:30N 48°37' W 123°31'2 3.8
2017-Dec-17 18:00N 48°35' W 123°29'1 1.3
2017-Dec-17 17:31N 48°36' W 123°30'1 2.1
2017-Dec-17 17:01N 48°36' W 123°31'2 0.9
2017-Dec-17 14:28N 48°35' W 123°28'0 0.0
2017-Dec-17 13:58N 48°35' W 123°28'0 0.0
2017-Dec-17 13:28N 48°35' W 123°28'0 0.0
2017-Dec-17 12:58N 48°35' W 123°28'0 0.0
2017-Dec-17 12:25N 48°35' W 123°28'0 0.0
2017-Dec-17 11:19N 48°35' W 123°28'0 0.0
2017-Dec-17 10:55N 48°35' W 123°28'0 0.0
2017-Dec-17 10:28N 48°35' W 123°28'0 0.0
2017-Dec-17 09:55N 48°35' W 123°28'0 0.0
2017-Dec-17 08:10N 48°35' W 123°28'0 0.0
2017-Dec-17 06:40N 48°35' W 123°28'0 0.0
2017-Dec-17 06:28N 48°35' W 123°28'0 0.0
2017-Dec-17 05:52N 48°35' W 123°28'0 0.0
2017-Dec-17 05:01N 48°35' W 123°28'0 0.0
2017-Dec-17 04:04N 48°35' W 123°28'0 0.0
2017-Dec-17 03:52N 48°35' W 123°28'0 0.0
2017-Dec-17 03:13N 48°35' W 123°28'0 0.1
2017-Dec-17 02:54N 48°35' W 123°28'3 7.4
2017-Dec-17 02:30N 48°37' W 123°31'3 5.1
2017-Dec-17 02:00N 48°35' W 123°29'2 3.0
2017-Dec-17 01:30N 48°36' W 123°30'0 0.6
2017-Dec-17 01:00N 48°36' W 123°30'1 1.4
2017-Dec-17 00:30N 48°35' W 123°29'2 3.7
2017-Dec-17 00:00N 48°37' W 123°31'3 4.7
2017-Dec-16 23:26N 48°35' W 123°28'3 6.9
2017-Dec-16 23:00N 48°37' W 123°31'3 5.8
2017-Dec-16 22:30N 48°35' W 123°28'2 4.2
2017-Dec-16 22:00N 48°36' W 123°30'1 2.2
2017-Dec-16 21:30N 48°35' W 123°29'1 1.9
2017-Dec-16 20:57N 48°35' W 123°28'0 0.0
2017-Dec-16 20:23N 48°35' W 123°28'0 0.6
2017-Dec-16 20:00N 48°35' W 123°28'3 5.6
2017-Dec-16 19:30N 48°37' W 123°31'3 4.5
2017-Dec-16 18:52N 48°35' W 123°28'3 7.4
2017-Dec-16 18:30N 48°37' W 123°31'2 3.8
2017-Dec-16 18:00N 48°35' W 123°29'0 0.7
2017-Dec-16 17:30N 48°35' W 123°30'1 2.6
2017-Dec-16 17:00N 48°36' W 123°31'2 0.2
2017-Dec-16 03:06N 48°35' W 123°28'0 2.6
2017-Dec-16 03:00N 48°35' W 123°28'3 5.6
2017-Dec-16 02:31N 48°37' W 123°31'3 5.1
2017-Dec-16 01:56N 48°35' W 123°28'3 6.7
2017-Dec-16 01:31N 48°37' W 123°31'2 4.7
2017-Dec-16 01:00N 48°35' W 123°29'1 1.7
2017-Dec-16 00:31N 48°35' W 123°30'1 1.3
2017-Dec-16 00:01N 48°36' W 123°30'2 3.3
2017-Dec-15 23:31N 48°35' W 123°29'3 5.2
2017-Dec-15 23:01N 48°37' W 123°31'3 4.4
2017-Dec-15 22:20N 48°35' W 123°28'2 6.6
2017-Dec-15 22:00N 48°36' W 123°30'1 1.8
2017-Dec-15 21:30N 48°35' W 123°30'1 2.2
2017-Dec-15 20:54N 48°35' W 123°28'0 0.0
2017-Dec-15 20:02N 48°35' W 123°28'0 4.2
2017-Dec-15 20:00N 48°35' W 123°28'3 5.9
2017-Dec-15 19:30N 48°37' W 123°31'3 4.6
2017-Dec-15 18:52N 48°35' W 123°28'3 6.9
2017-Dec-15 18:31N 48°37' W 123°31'2 3.5
2017-Dec-15 18:01N 48°35' W 123°29'0 0.4
2017-Dec-15 17:31N 48°35' W 123°29'1 3.0
2017-Dec-15 17:01N 48°36' W 123°31'2 4.9
2017-Dec-15 16:30N 48°35' W 123°28'3 5.9
2017-Dec-15 16:01N 48°37' W 123°31'3 4.4
2017-Dec-15 15:21N 48°35' W 123°28'0 0.0
2017-Dec-15 14:58N 48°35' W 123°28'0 0.0
2017-Dec-15 12:22N 48°35' W 123°28'0 0.0
2017-Dec-15 11:28N 48°35' W 123°28'0 0.0
2017-Dec-15 08:16N 48°35' W 123°28'0 0.0
2017-Dec-15 07:52N 48°35' W 123°28'0 0.0
2017-Dec-15 07:28N 48°35' W 123°28'0 0.0
2017-Dec-15 04:28N 48°35' W 123°28'3 1.5
2017-Dec-15 02:31N 48°37' W 123°31'2 1.4
2017-Dec-15 01:00N 48°35' W 123°29'0 0.5
2017-Dec-15 00:31N 48°35' W 123°29'1 0.2
2017-Dec-14 18:31N 48°36' W 123°30'1 2.4
2017-Dec-14 18:01N 48°35' W 123°30'0 0.6
2017-Dec-14 17:31N 48°35' W 123°29'2 3.6
2017-Dec-14 17:01N 48°37' W 123°31'3 5.3
2017-Dec-14 16:30N 48°35' W 123°28'3 5.9
2017-Dec-14 16:01N 48°37' W 123°31'3 2.4
2017-Dec-14 14:46N 48°35' W 123°28'0 0.0
2017-Dec-14 14:28N 48°35' W 123°28'0 0.0
2017-Dec-14 04:58N 48°35' W 123°28'0 0.0
2017-Dec-14 04:28N 48°35' W 123°28'0 0.0
2017-Dec-14 03:58N 48°35' W 123°28'0 0.0
2017-Dec-14 03:28N 48°35' W 123°28'0 0.0
2017-Dec-14 03:00N 48°35' W 123°28'3 5.9
2017-Dec-14 02:31N 48°37' W 123°31'3 5.8
2017-Dec-14 02:00N 48°35' W 123°28'3 5.4
2017-Dec-14 01:31N 48°37' W 123°31'2 3.1
2017-Dec-14 01:01N 48°35' W 123°29'0 0.6
2017-Dec-14 00:31N 48°35' W 123°29'2 3.7
2017-Dec-14 00:01N 48°37' W 123°31'3 4.8
2017-Dec-13 23:27N 48°35' W 123°28'3 6.6
2017-Dec-13 23:01N 48°37' W 123°31'3 5.3
2017-Dec-13 22:30N 48°35' W 123°29'2 3.5
2017-Dec-13 22:01N 48°36' W 123°30'1 1.1
2017-Dec-13 21:31N 48°36' W 123°30'2 1.1
2017-Dec-13 20:06N 48°35' W 123°28'1 5.7
2017-Dec-13 20:01N 48°35' W 123°29'2 4.5
2017-Dec-13 19:31N 48°37' W 123°31'3 4.8
2017-Dec-13 18:57N 48°35' W 123°28'3 6.8
2017-Dec-13 18:31N 48°37' W 123°31'2 4.6
2017-Dec-13 18:01N 48°35' W 123°29'0 1.0
2017-Dec-13 17:31N 48°35' W 123°29'1 2.4
2017-Dec-13 17:01N 48°36' W 123°30'2 4.6
2017-Dec-13 16:30N 48°35' W 123°28'3 5.9
2017-Dec-13 16:01N 48°37' W 123°31'3 5.7
2017-Dec-13 15:30N 48°35' W 123°28'0 0.0
2017-Dec-13 11:17N 48°35' W 123°28'0 0.0
2017-Dec-13 10:29N 48°35' W 123°28'0 0.0
2017-Dec-13 09:41N 48°35' W 123°28'0 0.0
2017-Dec-13 09:29N 48°35' W 123°28'0 0.0
2017-Dec-13 08:59N 48°35' W 123°28'0 0.0
2017-Dec-13 08:29N 48°35' W 123°28'0 0.0
2017-Dec-13 04:05N 48°35' W 123°28'0 0.0
2017-Dec-13 03:35N 48°35' W 123°28'0 0.0
2017-Dec-13 03:29N 48°35' W 123°28'0 0.0
2017-Dec-13 02:59N 48°35' W 123°28'3 6.2
2017-Dec-13 02:30N 48°37' W 123°31'3 5.2
2017-Dec-13 02:00N 48°35' W 123°29'2 3.1
2017-Dec-13 01:30N 48°36' W 123°30'0 0.5
2017-Dec-13 01:00N 48°36' W 123°30'1 1.9
2017-Dec-13 00:30N 48°35' W 123°29'2 4.3
2017-Dec-13 00:00N 48°37' W 123°31'3 5.5
2017-Dec-12 23:29N 48°35' W 123°28'3 6.2
2017-Dec-12 23:00N 48°37' W 123°31'3 5.3
2017-Dec-12 22:30N 48°35' W 123°29'1 0.0
2017-Dec-10 22:43N 48°36' W 123°30'0 0.0
2017-Dec-10 02:12N 48°36' W 123°30'  

Dump ship's entire track history